sensor_id;sensor_type;location;lat;lon;timestamp;P1;durP1;ratioP1;P2;durP2;ratioP2
30466;SDS011;17258;52.560;13.046;2023-11-19T00:04:44;9.40;;;4.93;;
30466;SDS011;17258;52.560;13.046;2023-11-19T00:14:45;7.53;;;4.27;;
30466;SDS011;17258;52.560;13.046;2023-11-19T00:24:46;4.25;;;3.75;;
30466;SDS011;17258;52.560;13.046;2023-11-19T00:34:46;5.87;;;4.83;;
30466;SDS011;17258;52.560;13.046;2023-11-19T00:44:47;4.15;;;3.80;;
30466;SDS011;17258;52.560;13.046;2023-11-19T00:54:48;4.70;;;4.30;;
30466;SDS011;17258;52.560;13.046;2023-11-19T01:04:49;4.32;;;4.00;;
30466;SDS011;17258;52.560;13.046;2023-11-19T01:14:49;4.20;;;3.90;;
30466;SDS011;17258;52.560;13.046;2023-11-19T01:24:50;4.07;;;3.73;;
30466;SDS011;17258;52.560;13.046;2023-11-19T01:34:52;3.47;;;3.17;;
30466;SDS011;17258;52.560;13.046;2023-11-19T01:44:59;3.08;;;2.80;;
30466;SDS011;17258;52.560;13.046;2023-11-19T02:05:03;2.53;;;2.33;;
30466;SDS011;17258;52.560;13.046;2023-11-19T02:15:04;3.20;;;3.00;;
30466;SDS011;17258;52.560;13.046;2023-11-19T02:25:06;2.90;;;2.70;;
30466;SDS011;17258;52.560;13.046;2023-11-19T02:35:13;1.98;;;1.88;;
30466;SDS011;17258;52.560;13.046;2023-11-19T02:45:13;3.63;;;2.87;;
30466;SDS011;17258;52.560;13.046;2023-11-19T02:55:14;3.67;;;2.97;;
30466;SDS011;17258;52.560;13.046;2023-11-19T03:05:15;2.85;;;2.65;;
30466;SDS011;17258;52.560;13.046;2023-11-19T03:15:17;3.00;;;2.80;;
30466;SDS011;17258;52.560;13.046;2023-11-19T03:25:18;2.30;;;2.10;;
30466;SDS011;17258;52.560;13.046;2023-11-19T03:35:18;2.87;;;2.53;;
30466;SDS011;17258;52.560;13.046;2023-11-19T03:45:19;7.50;;;2.80;;
30466;SDS011;17258;52.560;13.046;2023-11-19T03:55:20;4.10;;;2.80;;
30466;SDS011;17258;52.560;13.046;2023-11-19T04:05:20;2.70;;;2.50;;
30466;SDS011;17258;52.560;13.046;2023-11-19T04:15:21;2.43;;;2.27;;
30466;SDS011;17258;52.560;13.046;2023-11-19T04:25:22;2.88;;;2.53;;
30466;SDS011;17258;52.560;13.046;2023-11-19T04:35:22;2.28;;;1.98;;
30466;SDS011;17258;52.560;13.046;2023-11-19T04:45:23;1.83;;;1.73;;
30466;SDS011;17258;52.560;13.046;2023-11-19T04:55:24;2.13;;;2.00;;
30466;SDS011;17258;52.560;13.046;2023-11-19T05:05:24;1.73;;;1.63;;
30466;SDS011;17258;52.560;13.046;2023-11-19T05:15:25;1.60;;;1.50;;
30466;SDS011;17258;52.560;13.046;2023-11-19T05:25:26;1.73;;;1.63;;
30466;SDS011;17258;52.560;13.046;2023-11-19T05:35:27;1.40;;;1.30;;
30466;SDS011;17258;52.560;13.046;2023-11-19T05:45:27;1.58;;;1.48;;
30466;SDS011;17258;52.560;13.046;2023-11-19T05:55:28;1.10;;;1.10;;
30466;SDS011;17258;52.560;13.046;2023-11-19T06:05:29;1.70;;;1.60;;
30466;SDS011;17258;52.560;13.046;2023-11-19T06:15:29;1.53;;;1.43;;
30466;SDS011;17258;52.560;13.046;2023-11-19T06:25:31;1.50;;;1.38;;
30466;SDS011;17258;52.560;13.046;2023-11-19T06:35:31;1.53;;;1.43;;
30466;SDS011;17258;52.560;13.046;2023-11-19T06:45:36;1.25;;;1.15;;
30466;SDS011;17258;52.560;13.046;2023-11-19T06:55:37;1.40;;;1.30;;
30466;SDS011;17258;52.560;13.046;2023-11-19T07:05:37;1.27;;;1.20;;
30466;SDS011;17258;52.560;13.046;2023-11-19T07:15:38;1.02;;;1.02;;
30466;SDS011;17258;52.560;13.046;2023-11-19T07:25:39;1.15;;;1.15;;
30466;SDS011;17258;52.560;13.046;2023-11-19T07:35:39;1.50;;;1.42;;
30466;SDS011;17258;52.560;13.046;2023-11-19T07:45:42;1.30;;;1.30;;
30466;SDS011;17258;52.560;13.046;2023-11-19T07:55:46;1.10;;;1.10;;
30466;SDS011;17258;52.560;13.046;2023-11-19T08:05:47;1.20;;;1.20;;
30466;SDS011;17258;52.560;13.046;2023-11-19T08:15:48;1.48;;;1.38;;
30466;SDS011;17258;52.560;13.046;2023-11-19T08:25:48;1.20;;;1.20;;
30466;SDS011;17258;52.560;13.046;2023-11-19T08:35:49;2.65;;;2.42;;
30466;SDS011;17258;52.560;13.046;2023-11-19T08:45:50;1.80;;;1.70;;
30466;SDS011;17258;52.560;13.046;2023-11-19T08:55:51;1.73;;;1.67;;
30466;SDS011;17258;52.560;13.046;2023-11-19T09:05:52;17.73;;;16.70;;
30466;SDS011;17258;52.560;13.046;2023-11-19T09:15:53;18.08;;;16.98;;
30466;SDS011;17258;52.560;13.046;2023-11-19T09:25:54;7.63;;;7.30;;
30466;SDS011;17258;52.560;13.046;2023-11-19T09:35:55;14.85;;;14.05;;
30466;SDS011;17258;52.560;13.046;2023-11-19T09:45:55;13.70;;;12.90;;
30466;SDS011;17258;52.560;13.046;2023-11-19T09:55:59;4.50;;;4.13;;
30466;SDS011;17258;52.560;13.046;2023-11-19T10:06:03;1.90;;;1.80;;
30466;SDS011;17258;52.560;13.046;2023-11-19T10:16:10;18.17;;;16.65;;
30466;SDS011;17258;52.560;13.046;2023-11-19T10:26:13;18.60;;;17.30;;
30466;SDS011;17258;52.560;13.046;2023-11-19T10:36:13;17.98;;;16.77;;
30466;SDS011;17258;52.560;13.046;2023-11-19T10:46:14;10.77;;;10.07;;
30466;SDS011;17258;52.560;13.046;2023-11-19T10:56:20;16.52;;;15.35;;
30466;SDS011;17258;52.560;13.046;2023-11-19T11:06:30;17.85;;;16.65;;
30466;SDS011;17258;52.560;13.046;2023-11-19T11:16:33;18.83;;;17.55;;
30466;SDS011;17258;52.560;13.046;2023-11-19T11:26:42;19.17;;;17.77;;
30466;SDS011;17258;52.560;13.046;2023-11-19T11:37:05;21.02;;;19.13;;
30466;SDS011;17258;52.560;13.046;2023-11-19T11:47:19;21.25;;;19.52;;
30466;SDS011;17258;52.560;13.046;2023-11-19T11:57:20;20.90;;;18.90;;
30466;SDS011;17258;52.560;13.046;2023-11-19T12:07:23;17.13;;;15.55;;
30466;SDS011;17258;52.560;13.046;2023-11-19T12:27:51;5.70;;;3.28;;
30466;SDS011;17258;52.560;13.046;2023-11-19T12:37:54;20.63;;;18.63;;
30466;SDS011;17258;52.560;13.046;2023-11-19T12:48:07;12.60;;;5.20;;
30466;SDS011;17258;52.560;13.046;2023-11-19T12:58:27;13.50;;;8.98;;
30466;SDS011;17258;52.560;13.046;2023-11-19T13:08:42;11.80;;;7.63;;
30466;SDS011;17258;52.560;13.046;2023-11-19T13:18:48;18.40;;;16.75;;
30466;SDS011;17258;52.560;13.046;2023-11-19T13:28:49;8.20;;;7.50;;
30466;SDS011;17258;52.560;13.046;2023-11-19T13:38:50;8.60;;;4.13;;
30466;SDS011;17258;52.560;13.046;2023-11-19T13:48:51;11.55;;;3.85;;
30466;SDS011;17258;52.560;13.046;2023-11-19T13:58:51;9.10;;;3.70;;
30466;SDS011;17258;52.560;13.046;2023-11-19T14:08:53;8.80;;;3.92;;
30466;SDS011;17258;52.560;13.046;2023-11-19T14:18:54;14.68;;;5.72;;
30466;SDS011;17258;52.560;13.046;2023-11-19T14:28:54;12.45;;;3.85;;
30466;SDS011;17258;52.560;13.046;2023-11-19T14:38:55;16.93;;;3.93;;
30466;SDS011;17258;52.560;13.046;2023-11-19T14:48:57;17.30;;;4.32;;
30466;SDS011;17258;52.560;13.046;2023-11-19T14:58:58;10.48;;;3.45;;
30466;SDS011;17258;52.560;13.046;2023-11-19T15:08:59;12.90;;;4.50;;
30466;SDS011;17258;52.560;13.046;2023-11-19T15:19:00;8.95;;;3.95;;
30466;SDS011;17258;52.560;13.046;2023-11-19T15:29:03;12.02;;;3.05;;
30466;SDS011;17258;52.560;13.046;2023-11-19T15:39:07;9.18;;;3.47;;
30466;SDS011;17258;52.560;13.046;2023-11-19T15:49:08;11.47;;;4.17;;
30466;SDS011;17258;52.560;13.046;2023-11-19T15:59:09;7.80;;;3.38;;
30466;SDS011;17258;52.560;13.046;2023-11-19T16:09:09;7.70;;;2.93;;
30466;SDS011;17258;52.560;13.046;2023-11-19T16:19:14;6.13;;;2.35;;
30466;SDS011;17258;52.560;13.046;2023-11-19T16:29:15;9.13;;;3.40;;
30466;SDS011;17258;52.560;13.046;2023-11-19T16:39:16;11.03;;;3.70;;
30466;SDS011;17258;52.560;13.046;2023-11-19T16:49:16;5.97;;;3.13;;
30466;SDS011;17258;52.560;13.046;2023-11-19T16:59:17;6.53;;;2.60;;
30466;SDS011;17258;52.560;13.046;2023-11-19T17:09:18;13.63;;;3.50;;
30466;SDS011;17258;52.560;13.046;2023-11-19T17:19:18;9.80;;;3.65;;
30466;SDS011;17258;52.560;13.046;2023-11-19T17:29:21;6.93;;;3.30;;
30466;SDS011;17258;52.560;13.046;2023-11-19T17:39:21;12.43;;;4.20;;
30466;SDS011;17258;52.560;13.046;2023-11-19T17:49:22;6.77;;;2.23;;
30466;SDS011;17258;52.560;13.046;2023-11-19T17:59:23;3.20;;;2.10;;
30466;SDS011;17258;52.560;13.046;2023-11-19T18:09:27;3.72;;;2.03;;
30466;SDS011;17258;52.560;13.046;2023-11-19T18:19:28;2.63;;;1.52;;
30466;SDS011;17258;52.560;13.046;2023-11-19T18:29:28;3.87;;;1.70;;
30466;SDS011;17258;52.560;13.046;2023-11-19T18:39:30;3.40;;;1.60;;
30466;SDS011;17258;52.560;13.046;2023-11-19T18:49:31;3.80;;;1.70;;
30466;SDS011;17258;52.560;13.046;2023-11-19T18:59:31;2.73;;;2.03;;
30466;SDS011;17258;52.560;13.046;2023-11-19T19:09:32;6.68;;;2.60;;
30466;SDS011;17258;52.560;13.046;2023-11-19T19:19:36;5.75;;;2.30;;
30466;SDS011;17258;52.560;13.046;2023-11-19T19:29:37;6.13;;;3.03;;
30466;SDS011;17258;52.560;13.046;2023-11-19T19:39:38;4.90;;;2.27;;
30466;SDS011;17258;52.560;13.046;2023-11-19T19:49:39;7.78;;;2.20;;
30466;SDS011;17258;52.560;13.046;2023-11-19T19:59:40;7.97;;;3.10;;
30466;SDS011;17258;52.560;13.046;2023-11-19T20:09:40;9.47;;;3.73;;
30466;SDS011;17258;52.560;13.046;2023-11-19T20:19:43;9.20;;;2.70;;
30466;SDS011;17258;52.560;13.046;2023-11-19T20:29:47;5.55;;;2.35;;
30466;SDS011;17258;52.560;13.046;2023-11-19T20:39:47;6.60;;;2.60;;
30466;SDS011;17258;52.560;13.046;2023-11-19T20:49:48;8.90;;;3.50;;
30466;SDS011;17258;52.560;13.046;2023-11-19T20:59:50;5.53;;;2.53;;
30466;SDS011;17258;52.560;13.046;2023-11-19T21:09:51;7.40;;;2.30;;
30466;SDS011;17258;52.560;13.046;2023-11-19T21:19:52;8.10;;;2.58;;
30466;SDS011;17258;52.560;13.046;2023-11-19T21:29:55;6.47;;;3.30;;
30466;SDS011;17258;52.560;13.046;2023-11-19T21:39:59;3.20;;;2.38;;
30466;SDS011;17258;52.560;13.046;2023-11-19T21:50:00;9.02;;;2.92;;
30466;SDS011;17258;52.560;13.046;2023-11-19T22:00:01;9.15;;;3.47;;
30466;SDS011;17258;52.560;13.046;2023-11-19T22:10:02;3.03;;;2.10;;
30466;SDS011;17258;52.560;13.046;2023-11-19T22:20:04;2.60;;;1.88;;
30466;SDS011;17258;52.560;13.046;2023-11-19T22:30:07;6.95;;;2.47;;
30466;SDS011;17258;52.560;13.046;2023-11-19T22:40:11;4.63;;;2.40;;
30466;SDS011;17258;52.560;13.046;2023-11-19T22:50:12;2.10;;;1.52;;
30466;SDS011;17258;52.560;13.046;2023-11-19T23:00:13;6.47;;;2.33;;
30466;SDS011;17258;52.560;13.046;2023-11-19T23:10:27;8.27;;;3.05;;
30466;SDS011;17258;52.560;13.046;2023-11-19T23:20:31;9.23;;;2.72;;
30466;SDS011;17258;52.560;13.046;2023-11-19T23:30:33;5.88;;;2.08;;
30466;SDS011;17258;52.560;13.046;2023-11-19T23:40:33;5.65;;;2.65;;
30466;SDS011;17258;52.560;13.046;2023-11-19T23:50:34;4.33;;;2.27;;
